createdAt,value
2018-12-23T00:00:19.926Z,9.90
2018-12-23T00:01:19.960Z,9.90
2018-12-23T00:02:19.984Z,9.84
2018-12-23T00:03:20.015Z,9.93
2018-12-23T00:04:20.042Z,9.91
2018-12-23T00:05:20.070Z,9.81
2018-12-23T00:06:20.100Z,9.93
2018-12-23T00:07:20.128Z,9.86
2018-12-23T00:08:20.156Z,9.84
2018-12-23T00:09:20.186Z,9.87
2018-12-23T00:10:20.215Z,9.83
2018-12-23T00:11:20.244Z,9.93
2018-12-23T00:12:20.272Z,9.81
2018-12-23T00:13:20.300Z,9.93
2018-12-23T00:14:20.331Z,9.84
2018-12-23T00:15:20.359Z,9.83
2018-12-23T00:16:20.387Z,9.83
2018-12-23T00:17:20.416Z,9.83
2018-12-23T00:18:20.445Z,9.84
2018-12-23T00:19:20.475Z,9.87
2018-12-23T00:20:20.502Z,9.78
2018-12-23T00:21:20.532Z,9.84
2018-12-23T00:22:20.561Z,9.81
2018-12-23T00:23:20.589Z,9.79
2018-12-23T00:24:20.618Z,9.78
2018-12-23T00:25:20.646Z,9.84
2018-12-23T00:26:20.676Z,9.87
2018-12-23T00:27:20.704Z,9.91
2018-12-23T00:28:20.733Z,9.96
2018-12-23T00:29:20.763Z,9.93
2018-12-23T00:30:20.791Z,9.96
2018-12-23T00:31:20.818Z,10.12
2018-12-23T00:32:20.850Z,10.08
2018-12-23T00:33:20.878Z,10.04
2018-12-23T00:34:20.905Z,10.08
2018-12-23T00:35:20.935Z,10.12
2018-12-23T00:36:20.961Z,9.97
2018-12-23T00:37:20.992Z,10.02
2018-12-23T00:38:21.020Z,9.93
2018-12-23T00:39:21.048Z,10.07
2018-12-23T00:40:21.076Z,10.07
2018-12-23T00:41:21.106Z,10.09
2018-12-23T00:42:21.134Z,10.15
2018-12-23T00:43:21.166Z,10.08
2018-12-23T00:44:21.191Z,10.18
2018-12-23T00:45:21.221Z,10.09
2018-12-23T00:46:21.248Z,10.08
2018-12-23T00:47:21.314Z,10.11
2018-12-23T00:48:21.304Z,10.05
2018-12-23T00:49:21.335Z,10.12
2018-12-23T00:50:21.362Z,10.05
2018-12-23T00:51:21.393Z,9.91
2018-12-23T00:52:21.420Z,9.94
2018-12-23T00:53:21.450Z,9.94
2018-12-23T00:54:21.477Z,9.93
2018-12-23T00:55:21.505Z,9.93
2018-12-23T00:56:21.534Z,9.89
2018-12-23T00:57:21.563Z,9.81
2018-12-23T00:58:21.592Z,9.83
2018-12-23T00:59:21.622Z,9.86
2018-12-23T01:00:21.650Z,9.79
2018-12-23T01:01:21.677Z,9.86
2018-12-23T01:02:21.708Z,9.75
2018-12-23T01:03:21.736Z,9.83
2018-12-23T01:04:21.781Z,9.75
2018-12-23T01:05:28.735Z,9.68
2018-12-23T01:06:21.822Z,9.84
2018-12-23T01:07:21.850Z,9.79
2018-12-23T01:08:21.880Z,9.74
2018-12-23T01:09:21.908Z,9.81
2018-12-23T01:10:21.937Z,9.72
2018-12-23T01:11:21.966Z,9.71
2018-12-23T01:12:21.994Z,9.72
2018-12-23T01:13:22.024Z,9.74
2018-12-23T01:14:22.055Z,9.65
2018-12-23T01:15:22.083Z,9.68
2018-12-23T01:16:22.110Z,9.78
2018-12-23T01:17:22.137Z,9.68
2018-12-23T01:18:22.171Z,9.65
2018-12-23T01:19:22.197Z,9.66
2018-12-23T01:20:22.223Z,9.66
2018-12-23T01:21:22.253Z,9.60
2018-12-23T01:22:22.281Z,9.66
2018-12-23T01:23:22.311Z,9.56
2018-12-23T01:24:22.340Z,9.50
2018-12-23T01:25:22.367Z,9.56
2018-12-23T01:26:22.397Z,9.54
2018-12-23T01:27:22.425Z,9.57
2018-12-23T01:28:22.454Z,9.58
2018-12-23T01:29:22.483Z,9.54
2018-12-23T01:30:22.511Z,9.50
2018-12-23T01:31:22.540Z,9.48
2018-12-23T01:32:22.571Z,9.54
2018-12-23T01:33:22.598Z,9.51
2018-12-23T01:34:22.631Z,9.40
2018-12-23T01:35:22.654Z,9.38
2018-12-23T01:36:22.682Z,9.46
2018-12-23T01:37:22.713Z,9.31
2018-12-23T01:38:22.741Z,9.35
2018-12-23T01:39:22.770Z,9.33
2018-12-23T01:40:22.798Z,9.23
2018-12-23T01:41:22.826Z,9.23
2018-12-23T01:42:22.855Z,9.20
2018-12-23T01:43:22.885Z,9.15
2018-12-23T01:44:22.912Z,9.18
2018-12-23T01:45:22.942Z,9.18
2018-12-23T01:46:22.969Z,9.18
2018-12-23T01:47:22.999Z,9.02
2018-12-23T01:48:23.027Z,8.96
2018-12-23T01:49:23.055Z,8.95
2018-12-23T01:50:23.083Z,8.96
2018-12-23T01:51:23.113Z,8.92
2018-12-23T01:52:23.141Z,8.91
2018-12-23T01:53:23.170Z,8.95
2018-12-23T01:54:23.198Z,8.92
2018-12-23T01:55:23.227Z,8.91
2018-12-23T01:56:23.255Z,8.99
2018-12-23T01:57:23.285Z,8.87
2018-12-23T01:58:23.315Z,8.94
2018-12-23T01:59:23.342Z,8.81
2018-12-23T02:00:23.368Z,8.77
2018-12-23T02:01:23.401Z,8.74
2018-12-23T02:02:23.427Z,8.76
2018-12-23T02:03:23.456Z,8.83
2018-12-23T02:04:23.482Z,8.83
2018-12-23T02:05:23.512Z,8.76
2018-12-23T02:06:23.542Z,8.81
2018-12-23T02:07:23.569Z,8.83
2018-12-23T02:08:23.596Z,8.76
2018-12-23T02:09:23.624Z,8.76
2018-12-23T02:10:23.656Z,8.77
2018-12-23T02:11:23.686Z,8.79
2018-12-23T02:12:23.713Z,8.83
2018-12-23T02:13:23.737Z,8.87
2018-12-23T02:14:23.766Z,8.79
2018-12-23T02:15:23.794Z,8.81
2018-12-23T02:16:23.822Z,8.81
2018-12-23T02:17:23.852Z,8.73
2018-12-23T02:18:23.879Z,8.77
2018-12-23T02:19:23.908Z,8.77
2018-12-23T02:20:23.936Z,8.76
2018-12-23T02:21:23.964Z,8.79
2018-12-23T02:22:23.992Z,8.76
2018-12-23T02:23:24.020Z,8.68
2018-12-23T02:24:24.047Z,8.66
2018-12-23T02:25:24.076Z,8.66
2018-12-23T02:26:24.108Z,8.53
2018-12-23T02:27:24.132Z,8.55
2018-12-23T02:28:24.160Z,8.65
2018-12-23T02:29:24.188Z,8.56
2018-12-23T02:30:24.218Z,8.47
2018-12-23T02:31:24.245Z,8.45
2018-12-23T02:32:24.277Z,8.53
2018-12-23T02:33:24.301Z,8.41
2018-12-23T02:34:24.329Z,8.45
2018-12-23T02:35:24.357Z,8.43
2018-12-23T02:36:24.385Z,8.50
2018-12-23T02:37:24.413Z,8.34
2018-12-23T02:38:24.453Z,8.37
2018-12-23T02:39:24.470Z,8.33
2018-12-23T02:40:24.496Z,8.38
2018-12-23T02:41:31.632Z,8.44
2018-12-23T02:42:24.557Z,8.48
2018-12-23T02:43:24.582Z,8.44
2018-12-23T02:44:24.609Z,8.43
2018-12-23T02:45:24.638Z,8.30
2018-12-23T02:46:24.666Z,8.36
2018-12-23T02:47:24.695Z,8.36
2018-12-23T02:48:24.722Z,8.38
2018-12-23T02:49:24.749Z,8.19
2018-12-23T02:50:24.777Z,8.25
2018-12-23T02:51:24.807Z,8.23
2018-12-23T02:52:24.834Z,8.20
2018-12-23T02:53:24.860Z,8.22
2018-12-23T02:54:24.889Z,8.23
2018-12-23T02:55:24.918Z,8.22
2018-12-23T02:56:24.945Z,8.16
2018-12-23T02:57:24.973Z,8.15
2018-12-23T02:58:25.003Z,8.12
2018-12-23T02:59:25.034Z,8.22
2018-12-23T03:00:25.058Z,8.26
2018-12-23T03:01:25.086Z,8.19
2018-12-23T03:02:25.111Z,8.19
2018-12-23T03:03:25.143Z,8.12
2018-12-23T03:04:25.169Z,8.12
2018-12-23T03:05:25.197Z,8.02
2018-12-23T03:06:25.229Z,8.12
2018-12-23T03:07:25.251Z,8.16
2018-12-23T03:08:25.277Z,8.15
2018-12-23T03:09:25.357Z,8.18
2018-12-23T03:10:25.335Z,8.19
2018-12-23T03:11:25.369Z,8.20
2018-12-23T03:12:25.392Z,8.16
2018-12-23T03:13:25.418Z,8.23
2018-12-23T03:14:25.447Z,8.16
2018-12-23T03:15:25.475Z,8.26
2018-12-23T03:16:25.502Z,8.22
2018-12-23T03:17:25.528Z,8.20
2018-12-23T03:18:25.558Z,8.25
2018-12-23T03:19:25.610Z,8.25
2018-12-23T03:20:25.621Z,8.15
2018-12-23T03:21:25.640Z,8.16
2018-12-23T03:22:25.667Z,8.12
2018-12-23T03:23:25.700Z,8.10
2018-12-23T03:24:25.870Z,8.11
2018-12-23T03:25:25.750Z,8.05
2018-12-23T03:26:25.778Z,7.97
2018-12-23T03:27:25.807Z,7.97
2018-12-23T03:28:25.833Z,7.98
2018-12-23T03:29:25.864Z,8.05
2018-12-23T03:30:25.890Z,7.95
2018-12-23T03:31:25.918Z,7.98
2018-12-23T03:32:25.944Z,8.05
2018-12-23T03:33:25.971Z,8.05
2018-12-23T03:34:26.000Z,8.12
2018-12-23T03:35:26.036Z,8.08
2018-12-23T03:36:26.058Z,8.08
2018-12-23T03:37:26.085Z,8.08
2018-12-23T03:38:26.111Z,8.10
2018-12-23T03:39:26.139Z,8.04
2018-12-23T03:40:26.166Z,8.10
2018-12-23T03:41:26.198Z,8.04
2018-12-23T03:42:26.223Z,8.18
2018-12-23T03:43:26.251Z,8.23
2018-12-23T03:44:26.278Z,8.23
2018-12-23T03:45:26.304Z,8.26
2018-12-23T03:46:26.333Z,8.22
2018-12-23T03:47:26.360Z,8.25
2018-12-23T03:48:26.389Z,8.19
2018-12-23T03:49:26.417Z,8.20
2018-12-23T03:50:26.444Z,8.19
2018-12-23T03:51:26.471Z,8.23
2018-12-23T03:52:26.498Z,8.23
2018-12-23T03:53:26.526Z,8.26
2018-12-23T03:54:26.555Z,8.28
2018-12-23T03:55:26.582Z,8.20
2018-12-23T03:56:26.609Z,8.22
2018-12-23T03:57:26.638Z,8.22
2018-12-23T03:58:26.675Z,8.16
2018-12-23T03:59:26.693Z,8.08
2018-12-23T04:00:26.720Z,8.05
2018-12-23T04:01:26.750Z,7.93
2018-12-23T04:02:26.774Z,7.98
2018-12-23T04:03:26.805Z,7.97
2018-12-23T04:04:26.837Z,7.90
2018-12-23T04:05:26.860Z,8.02
2018-12-23T04:06:26.889Z,8.01
2018-12-23T04:07:26.917Z,8.01
2018-12-23T04:08:26.942Z,8.02
2018-12-23T04:09:26.970Z,8.07
2018-12-23T04:10:26.998Z,8.01
2018-12-23T04:11:27.025Z,8.02
2018-12-23T04:12:27.053Z,8.10
2018-12-23T04:13:27.081Z,8.07
2018-12-23T04:14:27.107Z,8.10
2018-12-23T04:15:27.137Z,8.07
2018-12-23T04:16:27.165Z,8.12
2018-12-23T04:17:27.191Z,8.05
2018-12-23T04:18:27.219Z,8.12
2018-12-23T04:19:27.248Z,8.02
2018-12-23T04:20:27.272Z,8.10
2018-12-23T04:21:27.301Z,8.07
2018-12-23T04:22:27.330Z,8.10
2018-12-23T04:23:27.359Z,8.05
2018-12-23T04:24:27.386Z,8.02
2018-12-23T04:25:27.419Z,7.97
2018-12-23T04:26:27.440Z,8.04
2018-12-23T04:27:27.469Z,8.01
2018-12-23T04:28:27.495Z,7.98
2018-12-23T04:29:27.522Z,8.16
2018-12-23T04:30:27.551Z,8.08
2018-12-23T04:31:27.579Z,8.07
2018-12-23T04:32:27.606Z,7.97
2018-12-23T04:33:27.634Z,8.02
2018-12-23T04:34:27.662Z,8.01
2018-12-23T04:35:27.689Z,8.00
2018-12-23T04:36:33.966Z,8.02
2018-12-23T04:37:27.745Z,8.00
2018-12-23T04:38:27.773Z,8.05
2018-12-23T04:39:27.800Z,8.00
2018-12-23T04:40:27.827Z,8.00
2018-12-23T04:41:27.854Z,8.00
2018-12-23T04:42:27.882Z,7.95
2018-12-23T04:43:27.999Z,7.98
2018-12-23T04:44:27.936Z,7.95
2018-12-23T04:45:27.964Z,8.07
2018-12-23T04:46:27.994Z,8.05
2018-12-23T04:47:28.020Z,8.08
2018-12-23T04:48:28.048Z,8.00
2018-12-23T04:49:28.080Z,7.87
2018-12-23T04:50:28.102Z,7.98
2018-12-23T04:51:28.132Z,7.95
2018-12-23T04:52:28.156Z,7.98
2018-12-23T04:53:28.184Z,7.82
2018-12-23T04:54:28.214Z,7.86
2018-12-23T04:55:28.240Z,7.89
2018-12-23T04:56:28.267Z,7.89
2018-12-23T04:57:28.295Z,7.85
2018-12-23T04:58:28.323Z,7.71
2018-12-23T04:59:28.350Z,7.71
2018-12-23T05:00:28.378Z,7.85
2018-12-23T05:01:28.405Z,7.83
2018-12-23T05:02:28.441Z,7.85
2018-12-23T05:03:28.461Z,7.92
2018-12-23T05:04:28.488Z,7.87
2018-12-23T05:05:28.517Z,7.83
2018-12-23T05:06:28.544Z,7.86
2018-12-23T05:07:28.573Z,7.87
2018-12-23T05:08:28.598Z,7.82
2018-12-23T05:09:28.626Z,7.83
2018-12-23T05:10:28.654Z,7.85
2018-12-23T05:11:28.685Z,7.79
2018-12-23T05:12:28.709Z,7.79
2018-12-23T05:13:28.736Z,7.75
2018-12-23T05:14:28.766Z,7.83
2018-12-23T05:15:28.793Z,7.83
2018-12-23T05:16:28.820Z,7.83
2018-12-23T05:17:28.846Z,7.72
2018-12-23T05:18:28.875Z,7.72
2018-12-23T05:19:28.902Z,7.71
2018-12-23T05:20:28.929Z,7.72
2018-12-23T05:21:28.960Z,7.80
2018-12-23T05:22:29.069Z,7.79
2018-12-23T05:23:29.011Z,7.74
2018-12-23T05:24:29.037Z,7.75
2018-12-23T05:25:29.066Z,7.74
2018-12-23T05:26:29.096Z,7.71
2018-12-23T05:27:29.122Z,7.85
2018-12-23T05:28:29.153Z,7.87
2018-12-23T05:29:29.176Z,7.85
2018-12-23T05:30:29.202Z,7.86
2018-12-23T05:31:29.232Z,7.86
2018-12-23T05:32:29.257Z,7.87
2018-12-23T05:33:29.285Z,7.86
2018-12-23T05:34:29.314Z,7.82
2018-12-23T05:35:29.343Z,7.82
2018-12-23T05:36:29.367Z,7.87
2018-12-23T05:37:29.398Z,7.82
2018-12-23T05:38:29.423Z,7.85
2018-12-23T05:39:29.449Z,7.82
2018-12-23T05:40:29.480Z,7.82
2018-12-23T05:41:29.504Z,7.82
2018-12-23T05:42:29.532Z,7.75
2018-12-23T05:43:29.559Z,7.85
2018-12-23T05:44:29.586Z,7.77
2018-12-23T05:45:29.614Z,7.64
2018-12-23T05:46:29.641Z,7.74
2018-12-23T05:47:29.668Z,7.61
2018-12-23T05:48:29.697Z,7.67
2018-12-23T05:49:29.724Z,7.57
2018-12-23T05:50:29.752Z,7.60
2018-12-23T05:51:29.779Z,7.63
2018-12-23T05:52:29.806Z,7.67
2018-12-23T05:53:29.832Z,7.74
2018-12-23T05:54:29.858Z,7.74
2018-12-23T05:55:29.887Z,7.63
2018-12-23T05:56:29.914Z,7.72
2018-12-23T05:57:29.943Z,7.80
2018-12-23T05:58:29.970Z,7.68
2018-12-23T05:59:29.997Z,7.77
2018-12-23T06:00:30.023Z,7.74
2018-12-23T06:01:30.079Z,7.75
2018-12-23T06:02:30.080Z,7.77
2018-12-23T06:03:30.107Z,7.80
2018-12-23T06:04:30.136Z,7.82
2018-12-23T06:05:30.161Z,7.72
2018-12-23T06:06:30.188Z,7.64
2018-12-23T06:07:30.216Z,7.82
2018-12-23T06:08:30.242Z,7.69
2018-12-23T06:09:30.271Z,7.83
2018-12-23T06:10:30.299Z,7.74
2018-12-23T06:11:30.328Z,7.77
2018-12-23T06:12:30.353Z,7.75
2018-12-23T06:13:30.380Z,7.72
2018-12-23T06:14:30.408Z,7.71
2018-12-23T06:15:30.435Z,7.67
2018-12-23T06:16:30.462Z,7.82
2018-12-23T06:17:30.490Z,7.71
2018-12-23T06:18:30.518Z,7.77
2018-12-23T06:19:30.547Z,7.75
2018-12-23T06:20:30.573Z,7.74
2018-12-23T06:21:30.599Z,7.75
2018-12-23T06:22:30.627Z,7.86
2018-12-23T06:23:30.655Z,7.83
2018-12-23T06:24:30.681Z,7.77
2018-12-23T06:25:30.711Z,7.71
2018-12-23T06:26:30.737Z,7.80
2018-12-23T06:27:30.764Z,7.85
2018-12-23T06:28:30.795Z,7.85
2018-12-23T06:29:30.821Z,7.90
2018-12-23T06:30:30.848Z,7.77
2018-12-23T06:31:30.873Z,7.79
2018-12-23T06:32:30.900Z,7.79
2018-12-23T06:33:30.930Z,7.82
2018-12-23T06:34:30.956Z,7.79
2018-12-23T06:35:30.985Z,7.83
2018-12-23T06:36:31.010Z,7.89
2018-12-23T06:37:31.038Z,7.82
2018-12-23T06:38:31.066Z,7.79
2018-12-23T06:39:31.093Z,7.79
2018-12-23T06:40:31.120Z,7.75
2018-12-23T06:41:31.148Z,7.71
2018-12-23T06:42:31.175Z,7.82
2018-12-23T06:43:31.204Z,7.67
2018-12-23T06:44:31.230Z,7.79
2018-12-23T06:45:31.258Z,7.75
2018-12-23T06:46:31.286Z,7.74
2018-12-23T06:47:31.314Z,7.72
2018-12-23T06:48:31.342Z,7.69
2018-12-23T06:49:31.368Z,7.69
2018-12-23T06:50:31.396Z,7.82
2018-12-23T06:51:31.424Z,7.74
2018-12-23T06:52:31.452Z,7.79
2018-12-23T06:53:31.477Z,7.80
2018-12-23T06:54:31.505Z,7.72
2018-12-23T06:55:31.533Z,7.75
2018-12-23T06:56:31.560Z,7.69
2018-12-23T06:57:31.587Z,7.67
2018-12-23T06:58:31.617Z,7.79
2018-12-23T06:59:31.643Z,7.67
2018-12-23T07:00:31.669Z,7.79
2018-12-23T07:01:31.702Z,7.85
2018-12-23T07:02:31.727Z,7.69
2018-12-23T07:03:31.753Z,7.75
2018-12-23T07:04:31.778Z,7.67
2018-12-23T07:05:31.806Z,7.71
2018-12-23T07:06:31.836Z,7.71
2018-12-23T07:07:31.861Z,7.72
2018-12-23T07:08:31.887Z,7.72
2018-12-23T07:09:31.915Z,7.72
2018-12-23T07:10:31.943Z,7.85
2018-12-23T07:11:31.970Z,7.74
2018-12-23T07:12:31.997Z,7.75
2018-12-23T07:13:32.025Z,7.69
2018-12-23T07:14:32.052Z,7.80
2018-12-23T07:15:32.083Z,7.71
2018-12-23T07:16:32.106Z,7.74
2018-12-23T07:17:32.134Z,7.79
2018-12-23T07:18:32.161Z,7.79
2018-12-23T07:19:32.189Z,7.85
2018-12-23T07:20:32.215Z,7.85
2018-12-23T07:21:32.246Z,7.80
2018-12-23T07:22:32.270Z,7.85
2018-12-23T07:23:32.298Z,7.85
2018-12-23T07:24:32.326Z,7.85
2018-12-23T07:25:32.352Z,7.83
2018-12-23T07:26:32.381Z,7.85
2018-12-23T07:27:32.408Z,7.89
2018-12-23T07:28:32.435Z,7.89
2018-12-23T07:29:32.463Z,7.98
2018-12-23T07:30:32.490Z,8.00
2018-12-23T07:31:32.521Z,8.00
2018-12-23T07:32:32.546Z,8.00
2018-12-23T07:33:32.573Z,7.97
2018-12-23T07:34:32.602Z,8.07
2018-12-23T07:35:32.629Z,8.08
2018-12-23T07:36:32.654Z,8.07
2018-12-23T07:37:32.681Z,8.19
2018-12-23T07:38:32.710Z,8.10
2018-12-23T07:39:32.741Z,8.16
2018-12-23T07:40:32.763Z,8.15
2018-12-23T07:41:32.792Z,8.05
2018-12-23T07:42:32.820Z,8.15
2018-12-23T07:43:32.848Z,8.07
2018-12-23T07:44:32.873Z,8.11
2018-12-23T07:45:32.901Z,8.05
2018-12-23T07:46:32.929Z,8.05
2018-12-23T07:47:32.955Z,8.12
2018-12-23T07:48:32.983Z,8.07
2018-12-23T07:49:33.013Z,8.12
2018-12-23T07:50:33.037Z,8.12
2018-12-23T07:51:33.065Z,8.07
2018-12-23T07:52:33.092Z,8.10
2018-12-23T07:53:33.119Z,8.07
2018-12-23T07:54:33.150Z,8.10
2018-12-23T07:55:33.176Z,8.12
2018-12-23T07:56:33.202Z,8.05
2018-12-23T07:57:33.229Z,8.01
2018-12-23T07:58:33.258Z,8.02
2018-12-23T07:59:33.285Z,8.01
2018-12-23T08:00:33.311Z,8.04
2018-12-23T08:01:33.340Z,8.04
2018-12-23T08:02:33.367Z,8.11
2018-12-23T08:03:33.394Z,8.05
2018-12-23T08:04:33.422Z,8.08
2018-12-23T08:05:33.450Z,8.16
2018-12-23T08:06:33.477Z,8.11
2018-12-23T08:07:36.244Z,8.16
2018-12-23T08:08:33.534Z,8.16
2018-12-23T08:09:33.558Z,8.20
2018-12-23T08:10:33.594Z,8.23
2018-12-23T08:11:33.615Z,8.22
2018-12-23T08:12:33.642Z,8.22
2018-12-23T08:13:33.673Z,8.19
2018-12-23T08:14:33.700Z,8.20
2018-12-23T08:15:33.726Z,8.19
2018-12-23T08:16:33.753Z,8.19
2018-12-23T08:17:33.781Z,8.19
2018-12-23T08:18:33.809Z,8.20
2018-12-23T08:19:33.836Z,8.25
2018-12-23T08:20:33.863Z,8.26
2018-12-23T08:21:33.892Z,8.29
2018-12-23T08:22:33.921Z,8.18
2018-12-23T08:23:33.946Z,8.25
2018-12-23T08:24:33.974Z,8.33
2018-12-23T08:25:35.747Z,8.36
2018-12-23T08:26:34.029Z,8.43
2018-12-23T08:27:34.057Z,8.44
2018-12-23T08:28:34.084Z,8.52
2018-12-23T08:29:34.112Z,8.55
2018-12-23T08:30:34.144Z,8.45
2018-12-23T08:31:34.167Z,8.43
2018-12-23T08:32:34.194Z,8.41
2018-12-23T08:33:34.223Z,8.41
2018-12-23T08:34:34.250Z,8.44
2018-12-23T08:35:34.278Z,8.47
2018-12-23T08:36:34.305Z,8.47
2018-12-23T08:37:34.332Z,8.41
2018-12-23T08:38:34.361Z,8.50
2018-12-23T08:39:34.390Z,8.48
2018-12-23T08:40:34.418Z,8.45
2018-12-23T08:41:34.445Z,8.47
2018-12-23T08:42:34.472Z,8.52
2018-12-23T08:43:34.502Z,8.50
2018-12-23T08:44:34.528Z,8.56
2018-12-23T08:45:34.557Z,8.58
2018-12-23T08:46:39.174Z,8.52
2018-12-23T08:47:34.611Z,8.55
2018-12-23T08:48:34.638Z,8.58
2018-12-23T08:49:34.667Z,8.56
2018-12-23T08:50:34.695Z,8.62
2018-12-23T08:51:34.724Z,8.58
2018-12-23T08:52:34.752Z,8.62
2018-12-23T08:53:34.780Z,8.68
2018-12-23T08:54:34.808Z,8.62
2018-12-23T08:55:34.834Z,8.74
2018-12-23T08:56:34.871Z,8.66
2018-12-23T08:57:35.450Z,8.65
2018-12-23T08:58:34.919Z,8.68
2018-12-23T08:59:34.948Z,8.74
2018-12-23T09:00:34.973Z,8.68
2018-12-23T09:01:35.002Z,8.76
2018-12-23T09:02:35.030Z,8.86
2018-12-23T09:03:35.059Z,8.81
2018-12-23T09:04:35.086Z,8.87
2018-12-23T09:05:35.115Z,8.86
2018-12-23T09:06:35.143Z,8.86
2018-12-23T09:07:35.171Z,8.96
2018-12-23T09:08:35.199Z,8.84
2018-12-23T09:09:35.227Z,8.92
2018-12-23T09:10:35.256Z,8.86
2018-12-23T09:11:42.622Z,8.96
2018-12-23T09:12:35.311Z,9.01
2018-12-23T09:13:35.339Z,8.96
2018-12-23T09:14:35.368Z,8.95
2018-12-23T09:15:35.396Z,8.99
2018-12-23T09:16:35.424Z,9.04
2018-12-23T09:17:35.452Z,9.04
2018-12-23T09:18:35.481Z,9.15
2018-12-23T09:19:35.509Z,9.20
2018-12-23T09:20:35.539Z,9.23
2018-12-23T09:21:35.565Z,9.21
2018-12-23T09:22:35.598Z,9.24
2018-12-23T09:23:35.623Z,9.17
2018-12-23T09:24:35.650Z,9.23
2018-12-23T09:25:35.677Z,9.29
2018-12-23T09:26:35.707Z,9.32
2018-12-23T09:27:35.847Z,9.29
2018-12-23T09:28:35.763Z,9.35
2018-12-23T09:29:35.795Z,9.42
2018-12-23T09:30:35.819Z,9.40
2018-12-23T09:31:35.850Z,9.46
2018-12-23T09:32:35.878Z,9.46
2018-12-23T09:33:35.905Z,9.46
2018-12-23T09:34:35.940Z,9.53
2018-12-23T09:35:35.963Z,9.50
2018-12-23T09:36:35.991Z,9.53
2018-12-23T09:37:36.020Z,9.56
2018-12-23T09:38:36.049Z,9.71
2018-12-23T09:39:36.076Z,9.66
2018-12-23T09:40:36.106Z,9.68
2018-12-23T09:41:36.133Z,9.64
2018-12-23T09:42:36.168Z,9.81
2018-12-23T09:43:36.191Z,9.87
2018-12-23T09:44:36.219Z,9.90
2018-12-23T09:45:36.248Z,9.86
2018-12-23T09:46:36.278Z,9.93
2018-12-23T09:47:36.306Z,9.94
2018-12-23T09:48:36.336Z,10.05
2018-12-23T09:49:36.364Z,9.96
2018-12-23T09:50:36.392Z,10.04
2018-12-23T09:51:36.422Z,10.04
2018-12-23T09:52:36.451Z,10.08
2018-12-23T09:53:36.480Z,10.15
2018-12-23T09:54:36.508Z,10.12
2018-12-23T09:55:36.536Z,10.14
2018-12-23T09:56:36.565Z,10.14
2018-12-23T09:57:36.596Z,10.14
2018-12-23T09:58:36.627Z,10.26
2018-12-23T09:59:36.653Z,10.23
2018-12-23T10:00:36.683Z,10.22
2018-12-23T10:01:36.711Z,10.20
2018-12-23T10:02:36.740Z,10.18
2018-12-23T10:03:36.770Z,10.25
2018-12-23T10:04:36.797Z,10.27
2018-12-23T10:05:36.827Z,10.26
2018-12-23T10:06:36.857Z,10.32
2018-12-23T10:07:36.886Z,10.22
2018-12-23T10:08:36.914Z,10.22
2018-12-23T10:09:36.945Z,10.18
2018-12-23T10:10:36.974Z,10.17
2018-12-23T10:11:37.002Z,10.22
2018-12-23T10:12:37.031Z,10.33
2018-12-23T10:13:37.061Z,10.27
2018-12-23T10:14:37.093Z,10.18
2018-12-23T10:15:37.118Z,10.27
2018-12-23T10:16:37.147Z,10.22
2018-12-23T10:17:37.177Z,10.20
2018-12-23T10:18:37.208Z,10.25
2018-12-23T10:19:37.235Z,10.30
2018-12-23T10:20:37.264Z,10.18
2018-12-23T10:21:37.294Z,10.18
2018-12-23T10:22:37.324Z,10.25
2018-12-23T10:23:37.352Z,10.18
2018-12-23T10:24:37.381Z,10.20
2018-12-23T10:25:37.409Z,10.36
2018-12-23T10:26:37.449Z,10.23
2018-12-23T10:27:37.472Z,10.32
2018-12-23T10:28:37.499Z,10.33
2018-12-23T10:29:37.526Z,10.33
2018-12-23T10:30:37.558Z,10.29
2018-12-23T10:31:37.585Z,10.38
2018-12-23T10:32:37.617Z,10.41
2018-12-23T10:33:37.642Z,10.40
2018-12-23T10:34:37.676Z,10.38
2018-12-23T10:35:37.702Z,10.40
2018-12-23T10:36:37.732Z,10.38
2018-12-23T10:37:37.760Z,10.53
2018-12-23T10:38:37.789Z,10.38
2018-12-23T10:39:37.818Z,10.51
2018-12-23T10:40:37.847Z,10.51
2018-12-23T10:41:37.876Z,10.53
2018-12-23T10:42:37.906Z,10.60
2018-12-23T10:43:37.937Z,10.68
2018-12-23T10:44:37.965Z,10.68
2018-12-23T10:45:37.994Z,10.73
2018-12-23T10:46:38.023Z,10.91
2018-12-23T10:47:38.053Z,10.94
2018-12-23T10:48:38.082Z,10.94
2018-12-23T10:49:38.111Z,11.14
2018-12-23T10:50:38.145Z,11.14
2018-12-23T10:51:38.172Z,11.22
2018-12-23T10:52:38.249Z,11.36
2018-12-23T10:53:38.230Z,11.42
2018-12-23T10:54:38.263Z,11.42
2018-12-23T10:55:38.289Z,11.44
2018-12-23T10:56:38.321Z,11.44
2018-12-23T10:57:38.347Z,11.54
2018-12-23T10:58:38.378Z,11.65
2018-12-23T10:59:38.406Z,11.70
2018-12-23T11:00:38.436Z,11.64
2018-12-23T11:01:38.465Z,11.67
2018-12-23T11:02:38.495Z,11.72
2018-12-23T11:03:38.527Z,11.75
2018-12-23T11:04:38.553Z,11.73
2018-12-23T11:05:38.583Z,11.65
2018-12-23T11:06:38.696Z,11.67
2018-12-23T11:07:38.643Z,11.69
2018-12-23T11:08:38.670Z,11.61
2018-12-23T11:09:38.703Z,11.57
2018-12-23T11:10:38.731Z,11.57
2018-12-23T11:11:38.763Z,11.61
2018-12-23T11:12:38.791Z,11.58
2018-12-23T11:13:38.820Z,11.61
2018-12-23T11:14:38.850Z,11.69
2018-12-23T11:15:38.879Z,11.61
2018-12-23T11:16:38.907Z,11.62
2018-12-23T11:17:38.940Z,11.61
2018-12-23T11:18:38.966Z,11.70
2018-12-23T11:19:38.999Z,11.60
2018-12-23T11:20:39.026Z,11.62
2018-12-23T11:21:39.056Z,11.60
2018-12-23T11:22:39.086Z,11.58
2018-12-23T11:23:39.139Z,11.54
2018-12-23T11:24:39.145Z,11.58
2018-12-23T11:25:39.178Z,11.54
2018-12-23T11:26:39.206Z,11.46
2018-12-23T11:27:39.234Z,11.43
2018-12-23T11:28:39.263Z,11.46
2018-12-23T11:29:39.294Z,11.51
2018-12-23T11:30:39.324Z,11.57
2018-12-23T11:31:39.353Z,11.58
2018-12-23T11:32:39.383Z,11.58
2018-12-23T11:33:39.413Z,11.58
2018-12-23T11:34:39.443Z,11.51
2018-12-23T11:35:39.472Z,11.51
2018-12-23T11:36:39.501Z,11.54
2018-12-23T11:37:39.535Z,11.51
2018-12-23T11:38:39.561Z,11.51
2018-12-23T11:39:39.591Z,11.49
2018-12-23T11:40:39.620Z,11.55
2018-12-23T11:41:39.649Z,11.51
2018-12-23T11:42:39.678Z,11.46
2018-12-23T11:43:39.711Z,11.47
2018-12-23T11:44:39.739Z,11.43
2018-12-23T11:45:39.769Z,11.46
2018-12-23T11:46:39.799Z,11.47
2018-12-23T11:47:39.832Z,11.46
2018-12-23T11:48:39.855Z,11.46
2018-12-23T11:49:39.887Z,11.46
2018-12-23T11:50:39.920Z,11.44
2018-12-23T11:51:39.948Z,11.49
2018-12-23T11:52:39.977Z,11.46
2018-12-23T11:53:40.007Z,11.54
2018-12-23T11:54:40.036Z,11.57
2018-12-23T11:55:40.066Z,11.51
2018-12-23T11:56:40.103Z,11.57
2018-12-23T11:57:40.126Z,11.61
2018-12-23T11:58:40.158Z,11.69
2018-12-23T11:59:40.236Z,11.62
2018-12-23T12:00:40.216Z,11.65
2018-12-23T12:01:40.243Z,11.65
2018-12-23T12:02:40.273Z,11.64
2018-12-23T12:03:40.303Z,11.57
2018-12-23T12:04:40.334Z,11.65
2018-12-23T12:05:40.363Z,11.64
2018-12-23T12:06:40.391Z,11.62
2018-12-23T12:07:40.420Z,11.61
2018-12-23T12:08:43.800Z,11.65
2018-12-23T12:09:40.479Z,11.62
2018-12-23T12:10:40.509Z,11.64
2018-12-23T12:11:40.539Z,11.58
2018-12-23T12:12:40.568Z,11.58
2018-12-23T12:13:40.598Z,11.61
2018-12-23T12:14:40.709Z,11.61
2018-12-23T12:15:40.657Z,11.60
2018-12-23T12:16:40.688Z,11.57
2018-12-23T12:17:40.720Z,11.62
2018-12-23T12:18:40.747Z,11.65
2018-12-23T12:19:40.778Z,11.64
2018-12-23T12:20:40.806Z,11.60
2018-12-23T12:21:40.834Z,11.62
2018-12-23T12:22:41.324Z,11.60
2018-12-23T12:23:40.895Z,11.55
2018-12-23T12:24:40.924Z,11.57
2018-12-23T12:25:40.953Z,11.58
2018-12-23T12:26:40.983Z,11.55
2018-12-23T12:27:41.018Z,11.61
2018-12-23T12:28:41.041Z,11.57
2018-12-23T12:29:41.075Z,11.54
2018-12-23T12:30:41.102Z,11.61
2018-12-23T12:31:41.131Z,11.55
2018-12-23T12:32:41.162Z,11.55
2018-12-23T12:33:41.191Z,11.49
2018-12-23T12:34:41.220Z,11.54
2018-12-23T12:35:41.251Z,11.43
2018-12-23T12:36:41.279Z,11.49
2018-12-23T12:37:41.309Z,11.51
2018-12-23T12:38:41.340Z,11.51
2018-12-23T12:39:41.373Z,11.51
2018-12-23T12:40:41.397Z,11.62
2018-12-23T12:41:41.429Z,11.61
2018-12-23T12:42:41.759Z,11.58
2018-12-23T12:43:41.488Z,11.60
2018-12-23T12:44:41.518Z,11.62
2018-12-23T12:45:41.547Z,11.62
2018-12-23T12:46:41.578Z,11.58
2018-12-23T12:47:41.606Z,11.55
2018-12-23T12:48:41.637Z,11.64
2018-12-23T12:49:43.114Z,11.64
2018-12-23T12:50:41.696Z,11.64
2018-12-23T12:51:41.726Z,11.69
2018-12-23T12:52:41.754Z,11.73
2018-12-23T12:53:41.788Z,11.80
2018-12-23T12:54:41.813Z,11.62
2018-12-23T12:55:41.844Z,11.70
2018-12-23T12:56:41.873Z,11.62
2018-12-23T12:57:41.905Z,11.75
2018-12-23T12:58:41.938Z,11.76
2018-12-23T12:59:41.963Z,11.79
2018-12-23T13:00:41.992Z,11.75
2018-12-23T13:01:42.022Z,11.85
2018-12-23T13:02:42.052Z,11.91
2018-12-23T13:03:42.084Z,11.85
2018-12-23T13:04:42.111Z,11.88
2018-12-23T13:05:42.140Z,11.76
2018-12-23T13:06:42.171Z,11.78
2018-12-23T13:07:42.201Z,11.82
2018-12-23T13:08:42.228Z,11.78
2018-12-23T13:09:42.263Z,11.75
2018-12-23T13:10:42.293Z,11.79
2018-12-23T13:11:42.319Z,11.78